Time;durP1;ratioP1;P1;durP2;ratioP2;P2;SDS_P1;SDS_P2;PMS_P1;PMS_P2;Temp;Humidity;BMP_temperature;BMP_pressure;BME280_temperature;BME280_humidity;BME280_pressure;Samples;Min_cycle;Max_cycle;Signal;HPM_P1;HPM_P2
2022/06/09 00:00:45;;;;;;;13.52;2.83;;;17.00;99.90;;;;;;7340648;19;107942;-80
2022/06/09 00:03:19;;;;;;;12.98;2.38;;;17.00;99.90;;;;;;7339244;19;108597;-79
2022/06/09 00:05:47;;;;;;;12.32;2.30;;;17.00;99.90;;;;;;7340958;19;108300;-80
2022/06/09 00:08:15;;;;;;;14.55;2.30;;;16.90;99.90;;;;;;7337224;19;107396;-79
2022/06/09 00:10:49;;;;;;;12.70;2.50;;;16.90;99.90;;;;;;7340828;19;109866;-79
2022/06/09 00:13:16;;;;;;;14.15;2.40;;;16.90;99.90;;;;;;7337436;19;107885;-80
2022/06/09 00:15:44;;;;;;;16.90;2.70;;;16.80;99.90;;;;;;7339233;19;107890;-79
2022/06/09 00:18:11;;;;;;;17.90;2.40;;;16.80;99.90;;;;;;7345845;19;107817;-79
2022/06/09 00:20:38;;;;;;;13.40;2.60;;;16.80;99.90;;;;;;7341441;19;108054;-79
2022/06/09 00:23:05;;;;;;;14.27;2.80;;;16.70;99.90;;;;;;7341007;19;107484;-80
2022/06/09 00:25:35;;;;;;;22.02;3.20;;;16.70;99.90;;;;;;7346944;19;109366;-79
2022/06/09 00:28:13;;;;;;;18.80;2.58;;;16.70;99.90;;;;;;7345308;19;107176;-79
2022/06/09 00:30:41;;;;;;;20.90;2.65;;;16.70;99.90;;;;;;7348353;19;108199;-79
2022/06/09 00:33:09;;;;;;;10.15;2.20;;;16.70;99.90;;;;;;7345766;19;108934;-79
2022/06/09 00:35:36;;;;;;;16.85;2.55;;;16.70;99.90;;;;;;7345548;19;107947;-80
2022/06/09 00:38:03;;;;;;;22.67;3.50;;;16.60;99.90;;;;;;7347687;19;107903;-79
2022/06/09 00:40:31;;;;;;;21.13;3.03;;;16.60;99.90;;;;;;7352409;19;111021;-79
2022/06/09 00:43:02;;;;;;;15.45;2.80;;;16.60;99.90;;;;;;7347438;19;108302;-80
2022/06/09 00:45:39;;;;;;;20.33;3.17;;;16.60;99.90;;;;;;7346434;19;109045;-79
2022/06/09 00:48:25;;;;;;;17.88;3.15;;;16.60;99.90;;;;;;7345693;19;108386;-79
2022/06/09 00:51:10;;;;;;;21.95;3.42;;;16.60;99.90;;;;;;7343962;19;108005;-79
2022/06/09 00:53:40;;;;;;;21.17;2.92;;;16.60;99.90;;;;;;7346644;19;108186;-79
2022/06/09 00:56:10;;;;;;;21.30;3.35;;;16.50;99.90;;;;;;7347417;19;107931;-79
2022/06/09 00:58:40;;;;;;;23.17;3.45;;;16.50;99.90;;;;;;7346495;19;108254;-80
2022/06/09 01:01:12;;;;;;;21.58;3.20;;;16.60;99.90;;;;;;7352220;19;109080;-79
2022/06/09 01:03:43;;;;;;;23.35;3.70;;;16.60;99.90;;;;;;7347243;19;108422;-80
2022/06/09 01:06:18;;;;;;;20.23;3.40;;;16.50;99.90;;;;;;7345100;19;109191;-79
2022/06/09 01:08:54;;;;;;;22.20;3.20;;;16.50;99.90;;;;;;7344471;19;107361;-79
2022/06/09 01:11:22;;;;;;;23.92;3.58;;;16.50;99.90;;;;;;7346020;19;108241;-79
2022/06/09 01:13:49;;;;;;;17.38;3.03;;;16.50;99.90;;;;;;7342447;19;112442;-79
2022/06/09 01:16:40;;;;;;;24.67;3.47;;;16.50;99.90;;;;;;7344867;19;107770;-79
2022/06/09 01:19:17;;;;;;;23.40;3.78;;;16.50;99.90;;;;;;7344320;19;110450;-80
2022/06/09 01:22:08;;;;;;;26.55;3.95;;;16.40;99.90;;;;;;7346551;19;108600;-79
2022/06/09 01:24:51;;;;;;;23.80;3.85;;;16.40;99.90;;;;;;7350738;19;108683;-79
2022/06/09 01:27:27;;;;;;;20.25;3.47;;;16.40;99.90;;;;;;7344581;19;108921;-79
2022/06/09 01:30:10;;;;;;;23.88;3.92;;;16.40;99.90;;;;;;7344591;19;107920;-79
2022/06/09 01:32:58;;;;;;;25.65;3.85;;;16.30;99.90;;;;;;7343791;19;108538;-79
2022/06/09 01:35:35;;;;;;;25.65;4.07;;;16.30;99.90;;;;;;7343743;19;110660;-80
2022/06/09 01:38:03;;;;;;;21.53;3.53;;;16.20;99.90;;;;;;7345376;19;111334;-79
2022/06/09 01:40:30;;;;;;;26.95;3.80;;;16.20;99.90;;;;;;7344769;19;108147;-79
2022/06/09 01:42:59;;;;;;;20.42;3.53;;;16.20;99.90;;;;;;7344873;19;109002;-79
2022/06/09 01:45:49;;;;;;;22.20;4.20;;;16.20;99.90;;;;;;7343934;19;108016;-79
2022/06/09 01:48:19;;;;;;;30.40;3.60;;;16.20;99.90;;;;;;7349466;19;111331;-79
2022/06/09 01:51:10;;;;;;;19.90;3.85;;;16.20;99.90;;;;;;7342456;19;110503;-79
2022/06/09 01:53:57;;;;;;;22.63;3.40;;;16.20;99.90;;;;;;7342234;19;107515;-79
2022/06/09 01:56:43;;;;;;;25.27;4.05;;;16.20;99.90;;;;;;7344113;19;109265;-79
2022/06/09 01:59:34;;;;;;;29.90;3.90;;;16.10;99.90;;;;;;7343757;19;108394;-79
2022/06/09 02:02:36;;;;;;;22.63;4.10;;;16.10;99.90;;;;;;7344406;19;108325;-79
2022/06/09 02:05:15;;;;;;;27.73;3.63;;;16.10;99.90;;;;;;7339986;19;111554;-79
2022/06/09 02:07:43;;;;;;;25.92;3.95;;;16.00;99.90;;;;;;7342431;19;108223;-79
2022/06/09 02:10:21;;;;;;;27.98;4.03;;;16.00;99.90;;;;;;7342336;19;108439;-79
2022/06/09 02:12:50;;;;;;;22.33;4.45;;;15.90;99.90;;;;;;7349604;19;107905;-79
2022/06/09 02:15:22;;;;;;;28.25;3.88;;;16.00;99.90;;;;;;7340718;19;108635;-79
2022/06/09 02:17:51;;;;;;;31.05;4.25;;;15.90;99.90;;;;;;7343080;19;109131;-79
2022/06/09 02:20:21;;;;;;;21.52;3.67;;;15.90;99.90;;;;;;7345160;19;108209;-79
2022/06/09 02:22:48;;;;;;;20.80;3.60;;;15.90;99.90;;;;;;7345670;19;111157;-81
2022/06/09 02:25:16;;;;;;;20.83;3.70;;;15.90;99.90;;;;;;7343409;19;108980;-80
2022/06/09 02:27:44;;;;;;;31.25;3.53;;;15.90;99.90;;;;;;7342097;19;108606;-79
2022/06/09 02:30:11;;;;;;;21.73;3.70;;;15.80;99.90;;;;;;7343811;19;108656;-79
2022/06/09 02:32:58;;;;;;;23.35;4.00;;;15.80;99.90;;;;;;7343985;19;111756;-79
2022/06/09 02:35:26;;;;;;;26.65;4.63;;;15.80;99.90;;;;;;7346674;19;107836;-79
2022/06/09 02:37:53;;;;;;;23.50;3.70;;;15.70;99.90;;;;;;7343241;19;108871;-79
2022/06/09 02:40:20;;;;;;;23.08;3.75;;;15.70;99.90;;;;;;7343330;19;109647;-79
2022/06/09 02:42:47;;;;;;;26.92;4.55;;;15.70;99.90;;;;;;7344728;19;108651;-79
2022/06/09 02:45:15;;;;;;;22.60;4.20;;;15.70;99.90;;;;;;7343373;19;108925;-80
2022/06/09 02:47:44;;;;;;;20.15;4.30;;;15.60;99.90;;;;;;7341750;19;109744;-79
2022/06/09 02:50:12;;;;;;;24.42;3.75;;;15.60;99.90;;;;;;7338757;19;111262;-79
2022/06/09 02:52:41;;;;;;;25.98;3.53;;;15.60;99.90;;;;;;7341524;19;109239;-79
2022/06/09 02:55:09;;;;;;;26.00;4.05;;;15.60;99.90;;;;;;7340976;19;107542;-80
2022/06/09 02:57:36;;;;;;;16.15;3.55;;;15.60;99.90;;;;;;7349540;19;107369;-78
2022/06/09 03:00:09;;;;;;;23.95;4.18;;;15.60;99.90;;;;;;7341191;19;108310;-79
2022/06/09 03:02:38;;;;;;;22.70;3.67;;;15.50;99.90;;;;;;7343175;19;108245;-79
2022/06/09 03:05:06;;;;;;;16.92;3.28;;;15.50;99.90;;;;;;7342284;19;108759;-79
2022/06/09 03:07:33;;;;;;;26.85;4.45;;;15.50;99.90;;;;;;7342737;19;108074;-79
2022/06/09 03:10:00;;;;;;;29.45;3.95;;;15.50;99.90;;;;;;7340152;19;108383;-79
2022/06/09 03:12:27;;;;;;;21.55;3.85;;;15.40;99.90;;;;;;7343873;19;109145;-79
2022/06/09 03:14:54;;;;;;;29.50;4.32;;;15.50;99.90;;;;;;7341799;19;107257;-79
2022/06/09 03:17:21;;;;;;;23.83;3.70;;;15.50;99.90;;;;;;7346335;19;109173;-79
2022/06/09 03:19:48;;;;;;;21.20;3.60;;;15.40;99.90;;;;;;7342410;19;107639;-79
2022/06/09 03:22:15;;;;;;;22.33;3.58;;;15.40;99.90;;;;;;7342773;19;108381;-81
2022/06/09 03:24:43;;;;;;;19.60;3.40;;;15.40;99.90;;;;;;7341654;19;108886;-79
2022/06/09 03:27:10;;;;;;;14.98;3.58;;;15.40;99.90;;;;;;7338463;19;108024;-78
2022/06/09 03:29:37;;;;;;;23.52;4.07;;;15.40;99.90;;;;;;7341032;19;107832;-79
2022/06/09 03:32:04;;;;;;;16.10;3.25;;;15.40;99.90;;;;;;7339600;19;107645;-79
2022/06/09 03:34:31;;;;;;;17.70;3.22;;;15.30;99.90;;;;;;7342278;19;108107;-79
2022/06/09 03:36:59;;;;;;;19.75;3.70;;;15.30;99.90;;;;;;7341638;19;108654;-79
2022/06/09 03:39:27;;;;;;;24.45;4.20;;;15.30;99.90;;;;;;7347612;19;108777;-79
2022/06/09 03:41:54;;;;;;;25.75;4.15;;;15.30;99.90;;;;;;7340232;19;108302;-79
2022/06/09 03:44:21;;;;;;;18.23;3.42;;;15.30;99.90;;;;;;7341430;19;108109;-79
2022/06/09 03:46:48;;;;;;;20.00;3.97;;;15.30;99.90;;;;;;7342535;19;108401;-79
2022/06/09 03:49:15;;;;;;;21.65;3.85;;;15.30;99.90;;;;;;7340337;19;108287;-81
2022/06/09 03:51:42;;;;;;;26.52;4.43;;;15.20;99.90;;;;;;7342167;19;108553;-79
2022/06/09 03:54:09;;;;;;;28.98;4.20;;;15.20;99.90;;;;;;7341518;19;110257;-79
2022/06/09 03:56:37;;;;;;;24.85;3.67;;;15.20;99.90;;;;;;7342032;19;107815;-79
2022/06/09 03:59:04;;;;;;;27.83;3.53;;;15.20;99.90;;;;;;7345364;19;109242;-79
2022/06/09 04:01:31;;;;;;;19.23;3.45;;;15.20;99.90;;;;;;7351098;19;108149;-79
2022/06/09 04:03:59;;;;;;;26.80;3.65;;;15.20;99.90;;;;;;7347650;19;109004;-79
2022/06/09 04:06:26;;;;;;;19.80;3.38;;;15.20;99.90;;;;;;7347157;19;108441;-79
2022/06/09 04:08:54;;;;;;;21.45;3.83;;;15.30;99.90;;;;;;7346271;19;108962;-79
2022/06/09 04:11:22;;;;;;;19.92;3.63;;;15.20;99.90;;;;;;7348008;19;107928;-79
2022/06/09 04:13:50;;;;;;;27.85;3.85;;;15.20;99.90;;;;;;7347897;19;108280;-79
2022/06/09 04:16:26;;;;;;;24.98;3.63;;;15.20;99.90;;;;;;7346363;19;108187;-78
2022/06/09 04:18:56;;;;;;;25.40;3.73;;;15.20;99.90;;;;;;7345883;19;109565;-79
2022/06/09 04:21:23;;;;;;;24.17;3.35;;;15.20;99.90;;;;;;7347540;19;107752;-79
2022/06/09 04:23:50;;;;;;;24.85;3.78;;;15.20;99.90;;;;;;7352717;19;108859;-79
2022/06/09 04:26:20;;;;;;;20.63;3.53;;;15.30;99.90;;;;;;7347245;19;108465;-79
2022/06/09 04:28:48;;;;;;;25.60;4.45;;;15.30;99.90;;;;;;7347565;19;108469;-79
2022/06/09 04:31:15;;;;;;;22.88;3.63;;;15.20;99.90;;;;;;7348102;19;112326;-79
2022/06/09 04:33:43;;;;;;;21.75;3.95;;;15.30;99.90;;;;;;7347784;19;107984;-79
2022/06/09 04:36:12;;;;;;;34.63;4.68;;;15.30;99.90;;;;;;7347324;19;108737;-79
2022/06/09 04:38:39;;;;;;;29.83;4.43;;;15.30;99.90;;;;;;7347396;19;108343;-79
2022/06/09 04:41:11;;;;;;;21.27;3.92;;;15.30;99.90;;;;;;7345965;19;107988;-79
2022/06/09 04:43:44;;;;;;;21.75;3.72;;;15.30;99.90;;;;;;7347708;19;108234;-79
2022/06/09 04:46:15;;;;;;;19.83;3.53;;;15.30;99.90;;;;;;7350590;19;108664;-79
2022/06/09 04:48:42;;;;;;;26.23;4.50;;;15.40;99.90;;;;;;7346048;19;107544;-79
2022/06/09 04:51:12;;;;;;;25.10;3.90;;;15.40;99.90;;;;;;7344411;19;108742;-79
2022/06/09 04:53:40;;;;;;;23.45;3.85;;;15.40;99.90;;;;;;7346209;19;107642;-80
2022/06/09 04:56:07;;;;;;;26.58;4.07;;;15.40;99.90;;;;;;7346593;19;108589;-79
2022/06/09 04:58:38;;;;;;;21.45;3.65;;;15.40;99.90;;;;;;7344954;19;108665;-79
2022/06/09 05:01:06;;;;;;;20.10;3.55;;;15.40;99.90;;;;;;7345845;19;108788;-79
2022/06/09 05:03:34;;;;;;;21.67;3.58;;;15.40;99.90;;;;;;7347445;19;108161;-79
2022/06/09 05:06:02;;;;;;;21.33;3.58;;;15.50;99.90;;;;;;7345211;19;109025;-79
2022/06/09 05:08:29;;;;;;;21.85;3.55;;;15.50;99.90;;;;;;7349374;19;107218;-79
2022/06/09 05:10:56;;;;;;;21.88;4.28;;;15.50;99.90;;;;;;7343446;19;109195;-79
2022/06/09 05:13:23;;;;;;;26.95;4.10;;;15.60;99.90;;;;;;7346430;19;108051;-81
2022/06/09 05:15:56;;;;;;;29.20;4.18;;;15.60;99.90;;;;;;7344420;19;108565;-79
2022/06/09 05:18:26;;;;;;;23.83;3.80;;;15.60;99.90;;;;;;7343261;19;108941;-81
2022/06/09 05:20:56;;;;;;;20.15;3.80;;;15.70;99.90;;;;;;7344840;19;108093;-79
2022/06/09 05:23:24;;;;;;;28.13;3.30;;;15.70;99.90;;;;;;7342730;19;107661;-79
2022/06/09 05:25:54;;;;;;;18.35;3.75;;;15.70;99.90;;;;;;7344733;19;109274;-79
2022/06/09 05:28:23;;;;;;;23.80;3.88;;;15.80;99.90;;;;;;7350414;19;107981;-79
2022/06/09 05:30:50;;;;;;;20.90;3.88;;;15.80;99.90;;;;;;7343024;19;108916;-80
2022/06/09 05:33:17;;;;;;;24.52;3.90;;;15.90;99.90;;;;;;7345126;19;107964;-80
2022/06/09 05:35:44;;;;;;;29.10;4.00;;;15.90;99.90;;;;;;7343060;19;107249;-79
2022/06/09 05:46:33;;;;;;;17.45;3.03;;;16.20;99.90;;;;;;7345075;19;108181;-79
2022/06/09 05:49:01;;;;;;;19.05;3.70;;;16.20;99.90;;;;;;7342168;19;108480;-79
2022/06/09 05:51:28;;;;;;;18.15;3.63;;;16.30;99.90;;;;;;7349473;19;108256;-81
2022/06/09 05:53:55;;;;;;;14.75;3.35;;;16.30;99.90;;;;;;7343923;19;109202;-79
2022/06/09 05:56:23;;;;;;;24.27;3.75;;;16.40;99.90;;;;;;7344864;19;108306;-79
2022/06/09 05:58:50;;;;;;;20.90;3.92;;;16.50;99.90;;;;;;7342583;19;110107;-79
2022/06/09 06:01:17;;;;;;;22.77;3.60;;;16.50;99.90;;;;;;7343248;19;107698;-79
2022/06/09 06:03:44;;;;;;;21.98;3.60;;;16.60;99.90;;;;;;7341316;19;107619;-79
2022/06/09 06:08:57;;;;;;;18.83;4.18;;;16.70;99.90;;;;;;7343622;19;107972;-79
2022/06/09 06:11:24;;;;;;;16.92;3.33;;;16.80;99.90;;;;;;7340845;19;108454;-79
2022/06/09 06:13:54;;;;;;;20.77;3.45;;;16.90;99.90;;;;;;7347577;19;109215;-79
2022/06/09 06:16:23;;;;;;;16.90;3.45;;;17.00;99.90;;;;;;7344285;19;108218;-79
2022/06/09 06:19:09;;;;;;;19.92;3.65;;;17.10;99.90;;;;;;7342844;19;111517;-79
2022/06/09 06:21:38;;;;;;;19.17;3.83;;;17.10;99.90;;;;;;7341786;19;109186;-79
2022/06/09 06:24:06;;;;;;;17.63;3.45;;;17.20;99.90;;;;;;7343658;19;107962;-79
2022/06/09 06:26:34;;;;;;;18.90;3.60;;;17.30;99.90;;;;;;7344386;19;108794;-78
2022/06/09 06:29:02;;;;;;;15.18;3.40;;;17.30;99.90;;;;;;7343066;19;108308;-79
2022/06/09 06:31:29;;;;;;;20.77;4.13;;;17.40;99.90;;;;;;7341958;19;107510;-79
2022/06/09 06:33:58;;;;;;;20.50;3.63;;;17.40;99.90;;;;;;7343906;19;108817;-79
2022/06/09 06:36:25;;;;;;;19.67;3.90;;;17.50;99.90;;;;;;7348875;19;108481;-79
2022/06/09 06:38:52;;;;;;;24.90;3.88;;;17.50;99.90;;;;;;7342722;19;108886;-80
2022/06/09 06:41:19;;;;;;;21.27;4.00;;;17.50;99.90;;;;;;7340167;19;107204;-79
2022/06/09 06:43:48;;;;;;;17.98;4.10;;;17.50;99.90;;;;;;7341992;19;109875;-80
2022/06/09 06:46:16;;;;;;;22.30;4.13;;;17.60;99.90;;;;;;7343498;19;110337;-80
2022/06/09 06:48:45;;;;;;;22.90;4.03;;;17.70;99.90;;;;;;7344261;19;108444;-80
2022/06/09 06:51:13;;;;;;;24.73;4.53;;;17.80;99.90;;;;;;7341393;19;108900;-80
2022/06/09 06:53:40;;;;;;;19.83;4.45;;;17.80;99.90;;;;;;7343153;19;108760;-81
2022/06/09 06:56:09;;;;;;;20.17;3.85;;;17.90;99.90;;;;;;7342660;19;108309;-80
2022/06/09 06:58:36;;;;;;;20.90;4.38;;;17.90;99.90;;;;;;7348663;19;108578;-80
2022/06/09 07:01:04;;;;;;;19.90;4.22;;;18.00;99.90;;;;;;7342046;19;107963;-80
2022/06/09 07:03:32;;;;;;;24.27;4.85;;;18.00;99.90;;;;;;7340533;19;108487;-80
2022/06/09 07:06:03;;;;;;;18.73;4.03;;;18.10;99.90;;;;;;7342968;19;109281;-80
2022/06/09 07:08:31;;;;;;;14.25;4.35;;;18.10;99.90;;;;;;7343562;19;107860;-80
2022/06/09 07:10:58;;;;;;;25.40;4.10;;;18.10;99.90;;;;;;7341183;19;107841;-80
2022/06/09 07:13:26;;;;;;;23.35;6.13;;;18.10;99.90;;;;;;7341964;19;109763;-80
2022/06/09 07:15:54;;;;;;;21.73;6.53;;;18.20;99.90;;;;;;7343759;19;107791;-79
2022/06/09 07:18:28;;;;;;;23.60;7.18;;;18.20;99.90;;;;;;7346166;19;107438;-80
2022/06/09 07:20:56;;;;;;;25.90;11.05;;;18.30;99.90;;;;;;7341298;19;108142;-79
2022/06/09 07:23:26;;;;;;;25.25;10.85;;;18.30;99.90;;;;;;7339295;19;112103;-80
2022/06/09 07:25:54;;;;;;;30.90;10.00;;;18.30;99.90;;;;;;7339181;19;110139;-79
2022/06/09 07:28:21;;;;;;;28.67;11.30;;;18.30;99.90;;;;;;7338758;19;110431;-80
2022/06/09 07:30:49;;;;;;;23.83;10.18;;;18.30;99.90;;;;;;7335216;19;111807;-80
2022/06/09 07:33:16;;;;;;;24.02;10.23;;;18.40;99.90;;;;;;7336388;19;110430;-81
2022/06/09 07:35:43;;;;;;;21.42;10.82;;;18.50;99.90;;;;;;7337189;19;112075;-81
2022/06/09 07:38:11;;;;;;;23.48;12.77;;;18.60;99.90;;;;;;7332378;19;111405;-81
2022/06/09 07:40:41;;;;;;;25.17;12.38;;;18.60;99.90;;;;;;7343194;19;110233;-81
2022/06/09 07:43:10;;;;;;;26.80;12.43;;;18.70;99.90;;;;;;7337057;19;111577;-81
2022/06/09 07:45:39;;;;;;;24.88;13.57;;;18.80;99.90;;;;;;7334633;19;110373;-81
2022/06/09 07:48:07;;;;;;;22.98;12.32;;;18.80;99.90;;;;;;7336533;19;112304;-81
2022/06/09 07:50:43;;;;;;;24.55;12.23;;;18.90;99.90;;;;;;7336106;19;111855;-81
2022/06/09 07:53:10;;;;;;;22.98;11.88;;;18.90;99.90;;;;;;7336988;19;110864;-81
2022/06/09 07:55:37;;;;;;;25.42;14.05;;;19.00;99.90;;;;;;7335347;19;111438;-81
2022/06/09 07:58:05;;;;;;;24.92;14.15;;;19.00;99.90;;;;;;7336120;19;112154;-81
2022/06/09 08:00:32;;;;;;;25.30;12.88;;;19.10;99.90;;;;;;7334715;19;110383;-81
2022/06/09 08:03:03;;;;;;;21.73;12.10;;;19.10;99.90;;;;;;7341164;19;111812;-81
2022/06/09 08:05:32;;;;;;;23.30;12.15;;;19.30;99.90;;;;;;7335748;19;110716;-81
2022/06/09 08:07:59;;;;;;;22.25;10.65;;;19.40;99.90;;;;;;7333929;19;111465;-81
2022/06/09 08:10:28;;;;;;;22.90;10.50;;;19.50;99.90;;;;;;7333172;19;111211;-82
2022/06/09 08:12:58;;;;;;;21.55;11.13;;;19.50;99.90;;;;;;7338310;19;110217;-85
2022/06/09 08:15:33;;;;;;;18.83;10.48;;;19.50;99.90;;;;;;7336150;19;110490;-86
2022/06/09 08:18:01;;;;;;;18.90;10.45;;;19.60;99.90;;;;;;7336419;19;111761;-84
2022/06/09 08:20:31;;;;;;;29.20;11.77;;;19.80;99.90;;;;;;7334675;19;109957;-86
2022/06/09 08:23:15;;;;;;;22.00;10.48;;;20.00;99.90;;;;;;7337717;19;110734;-85
2022/06/09 08:25:44;;;;;;;21.23;9.30;;;20.30;99.90;;;;;;7340888;19;113897;-84
2022/06/09 08:28:12;;;;;;;12.88;8.30;;;20.50;99.90;;;;;;7339212;19;110773;-85
2022/06/09 08:30:39;;;;;;;16.73;8.35;;;20.70;99.90;;;;;;7338638;19;110146;-84
2022/06/09 08:33:07;;;;;;;22.02;7.97;;;20.60;99.90;;;;;;7338262;19;108921;-84
2022/06/09 08:35:36;;;;;;;19.08;6.93;;;20.70;99.90;;;;;;7337210;19;110127;-85
2022/06/09 08:38:04;;;;;;;19.42;6.80;;;20.70;99.90;;;;;;7337424;19;111078;-85
2022/06/09 08:40:32;;;;;;;18.55;6.82;;;20.60;99.90;;;;;;7336361;19;109301;-85
2022/06/09 08:43:09;;;;;;;32.15;7.32;;;20.40;99.90;;;;;;7338727;19;108559;-84
2022/06/09 08:45:40;;;;;;;32.78;8.68;;;20.20;99.90;;;;;;7339634;19;110284;-84
2022/06/09 08:48:16;;;;;;;26.10;8.30;;;20.00;99.90;;;;;;7348741;19;111859;-84
2022/06/09 08:50:57;;;;;;;24.50;8.05;;;20.00;99.90;;;;;;7342143;19;108246;-83
2022/06/09 08:53:44;;;;;;;14.13;7.28;;;19.80;99.90;;;;;;7344482;19;107902;-83
2022/06/09 08:56:27;;;;;;;14.82;7.50;;;19.70;99.90;;;;;;7345472;19;108122;-83
2022/06/09 08:58:59;;;;;;;15.45;8.13;;;19.60;99.90;;;;;;7345312;19;108919;-83
2022/06/09 09:01:56;;;;;;;14.98;8.80;;;19.50;99.90;;;;;;7347171;19;108885;-83
2022/06/09 09:04:40;;;;;;;15.70;9.25;;;19.30;99.90;;;;;;7346671;19;108117;-83
2022/06/09 09:07:30;;;;;;;21.98;10.40;;;19.20;99.90;;;;;;7345131;19;108559;-83
2022/06/09 09:10:16;;;;;;;15.65;11.05;;;19.10;99.90;;;;;;7340693;19;110263;-84
2022/06/09 09:13:27;;;;;;;21.48;11.55;;;19.10;99.90;;;;;;7346720;19;111468;-84
2022/06/09 09:15:59;;;;;;;17.67;8.73;;;19.20;99.90;;;;;;7342253;19;111376;-84
2022/06/09 09:18:38;;;;;;;10.45;7.40;;;19.20;99.90;;;;;;7345928;19;112043;-84
2022/06/09 09:21:13;;;;;;;16.13;7.68;;;19.20;99.90;;;;;;7344514;19;108382;-83
2022/06/09 09:24:04;;;;;;;14.07;6.82;;;19.30;99.90;;;;;;7345948;19;109908;-83
2022/06/09 09:26:55;;;;;;;11.43;5.88;;;19.40;99.90;;;;;;7346174;19;108599;-83
2022/06/09 09:29:27;;;;;;;14.35;6.82;;;19.50;99.90;;;;;;7344405;19;108248;-83
2022/06/09 09:32:27;;;;;;;11.50;5.22;;;19.60;99.90;;;;;;7342678;19;109271;-83
2022/06/09 09:34:56;;;;;;;15.95;5.50;;;19.90;99.90;;;;;;7348265;19;107871;-83
2022/06/09 09:37:26;;;;;;;11.07;4.00;;;20.00;99.90;;;;;;7345412;19;109279;-82
2022/06/09 09:39:59;;;;;;;6.85;3.28;;;20.20;99.90;;;;;;7345142;19;108000;-83
2022/06/09 09:42:31;;;;;;;9.75;3.85;;;20.30;99.90;;;;;;7344819;19;108522;-82
2022/06/09 09:45:11;;;;;;;9.93;4.03;;;20.40;99.90;;;;;;7342862;19;108197;-83
2022/06/09 09:47:54;;;;;;;8.52;2.92;;;20.40;99.90;;;;;;7344740;19;108878;-83
2022/06/09 09:50:33;;;;;;;7.22;3.05;;;20.50;99.90;;;;;;7343210;19;108069;-82
2022/06/09 09:53:23;;;;;;;7.65;2.92;;;20.50;99.90;;;;;;7342957;19;109069;-82
2022/06/09 09:55:50;;;;;;;5.55;2.90;;;20.60;99.90;;;;;;7342651;19;107281;-82
2022/06/09 09:58:21;;;;;;;6.63;1.90;;;20.70;99.90;;;;;;7349827;19;108270;-82
2022/06/09 10:00:54;;;;;;;6.28;1.80;;;20.70;99.90;;;;;;7343261;19;111312;-82
2022/06/09 10:10:07;;;;;;;3.33;0.85;;;20.70;99.90;;;;;;7344960;19;109211;-82
2022/06/09 10:12:35;;;;;;;1.55;0.80;;;20.60;99.90;;;;;;7340847;19;108232;-83
2022/06/09 10:15:11;;;;;;;5.03;0.73;;;20.60;99.90;;;;;;7342658;19;108637;-83
2022/06/09 10:17:55;;;;;;;1.90;1.00;;;20.60;99.90;;;;;;7342558;19;108848;-83
2022/06/09 10:20:47;;;;;;;3.22;1.15;;;20.70;99.90;;;;;;7343793;19;108389;-83
2022/06/09 10:23:17;;;;;;;3.05;1.60;;;20.70;99.90;;;;;;7349764;19;108429;-83
2022/06/09 10:26:06;;;;;;;4.95;1.60;;;20.70;99.90;;;;;;7344082;19;107521;-83
2022/06/09 10:28:47;;;;;;;6.38;1.70;;;20.70;99.90;;;;;;7341789;19;109985;-82
2022/06/09 10:31:38;;;;;;;3.92;2.25;;;20.70;99.90;;;;;;7344675;19;108335;-82
2022/06/09 10:34:14;;;;;;;6.00;2.58;;;20.80;99.90;;;;;;7342309;19;108504;-83
2022/06/09 10:36:57;;;;;;;5.80;2.20;;;20.80;99.90;;;;;;7343488;19;112056;-83
2022/06/09 10:39:32;;;;;;;7.60;2.55;;;20.80;99.90;;;;;;7344178;19;108584;-82
2022/06/09 10:42:15;;;;;;;7.75;3.15;;;20.90;99.90;;;;;;7343549;19;107409;-83
2022/06/09 10:45:02;;;;;;;11.20;2.63;;;20.90;99.90;;;;;;7342456;19;107869;-83
2022/06/09 10:56:40;;;;;;;11.32;2.90;;;21.20;99.90;;;;;;7338888;19;110189;-82
2022/06/09 10:59:12;;;;;;;8.25;3.17;;;21.40;99.90;;;;;;7341928;19;108951;-83
2022/06/09 11:01:40;;;;;;;7.32;2.70;;;21.70;99.90;;;;;;7341187;19;108115;-83
2022/06/09 11:04:14;;;;;;;9.10;2.70;;;21.90;99.90;;;;;;7341352;19;109430;-83
2022/06/09 11:07:20;;;;;;;7.30;2.60;;;22.20;99.90;;;;;;7339769;19;109223;-84
2022/06/09 11:10:04;;;;;;;12.50;3.13;;;22.40;99.90;;;;;;7341928;19;109198;-83
2022/06/09 11:13:09;;;;;;;11.55;2.90;;;22.40;99.90;;;;;;7347458;19;108234;-83
2022/06/09 11:15:46;;;;;;;8.77;3.42;;;22.30;99.90;;;;;;7340816;19;108288;-84
2022/06/09 11:18:21;;;;;;;12.68;2.90;;;22.00;99.90;;;;;;7341014;19;107733;-84
2022/06/09 11:21:04;;;;;;;13.65;2.97;;;21.90;99.90;;;;;;7341745;19;109081;-83
2022/06/09 11:23:34;;;;;;;6.97;2.95;;;21.80;99.90;;;;;;7340481;19;108321;-83
2022/06/09 11:26:22;;;;;;;6.20;2.60;;;21.70;99.90;;;;;;7340582;19;108594;-83
2022/06/09 11:29:14;;;;;;;9.30;2.38;;;21.60;99.90;;;;;;7342171;19;107854;-83
2022/06/09 11:32:35;;;;;;;8.73;2.15;;;21.60;99.90;;;;;;7341008;19;110330;-84
2022/06/09 11:35:24;;;;;;;6.30;1.60;;;21.60;99.90;;;;;;7336922;19;110464;-83
2022/06/09 11:38:19;;;;;;;5.22;1.40;;;21.60;99.90;;;;;;7342335;19;108929;-83
2022/06/09 11:40:53;;;;;;;7.43;1.40;;;21.70;99.90;;;;;;7337384;19;108247;-84
2022/06/09 11:44:04;;;;;;;6.68;1.60;;;21.80;99.90;;;;;;7337024;19;108947;-84
2022/06/09 11:46:37;;;;;;;5.03;1.15;;;22.00;99.90;;;;;;7338014;19;108045;-84
2022/06/09 11:49:29;;;;;;;4.70;1.20;;;22.10;99.90;;;;;;7336544;19;108066;-83
2022/06/09 11:52:02;;;;;;;9.75;1.50;;;22.00;99.90;;;;;;7334183;19;111803;-83
2022/06/09 11:54:58;;;;;;;6.53;1.30;;;21.90;99.90;;;;;;7336985;19;108234;-84
2022/06/09 11:57:34;;;;;;;7.43;1.55;;;21.80;99.90;;;;;;7337993;19;108193;-83
2022/06/09 12:00:24;;;;;;;8.85;1.25;;;21.60;99.90;;;;;;7342408;19;108672;-84
2022/06/09 12:02:53;;;;;;;11.23;1.67;;;21.50;99.90;;;;;;7336829;19;110734;-84
2022/06/09 12:05:33;;;;;;;8.07;1.42;;;21.40;99.90;;;;;;7336015;19;107940;-84
2022/06/09 12:08:22;;;;;;;6.45;1.40;;;21.30;99.90;;;;;;7338201;19;108244;-84
2022/06/09 12:11:10;;;;;;;8.05;1.75;;;21.30;99.90;;;;;;7339643;19;108440;-84
2022/06/09 12:13:59;;;;;;;7.82;1.60;;;21.20;99.90;;;;;;7339234;19;109128;-85
2022/06/09 12:16:47;;;;;;;9.38;1.70;;;21.20;99.90;;;;;;7339462;19;108344;-85
2022/06/09 12:19:16;;;;;;;6.97;1.60;;;21.30;99.90;;;;;;7341106;19;110763;-84
2022/06/09 12:21:50;;;;;;;8.73;1.65;;;21.40;99.90;;;;;;7346941;19;108745;-85
2022/06/09 12:24:29;;;;;;;6.25;1.35;;;21.50;99.90;;;;;;7350490;19;107342;-85
2022/06/09 12:27:16;;;;;;;7.65;1.70;;;21.60;99.90;;;;;;7346668;19;107959;-86
2022/06/09 12:30:05;;;;;;;9.70;1.90;;;21.80;99.90;;;;;;7347882;19;110773;-85
2022/06/09 12:32:42;;;;;;;9.63;1.27;;;21.90;99.90;;;;;;7344362;19;109728;-85
2022/06/09 12:35:20;;;;;;;8.35;1.65;;;22.30;99.90;;;;;;7346179;19;109227;-84
2022/06/09 12:38:18;;;;;;;6.95;1.60;;;22.60;99.90;;;;;;7346351;19;107965;-85
2022/06/09 12:40:52;;;;;;;13.95;1.60;;;22.80;99.90;;;;;;7346985;19;107968;-85
2022/06/09 12:43:54;;;;;;;6.75;1.52;;;22.90;99.90;;;;;;7347512;19;108105;-85
2022/06/09 12:46:26;;;;;;;6.43;1.55;;;23.10;99.90;;;;;;7347106;19;107768;-85
2022/06/09 12:48:55;;;;;;;8.10;1.90;;;23.20;99.90;;;;;;7353218;19;108125;-85
2022/06/09 12:51:33;;;;;;;5.07;1.45;;;23.40;99.90;;;;;;7343453;19;107542;-85
2022/06/09 12:54:04;;;;;;;7.25;1.60;;;23.70;99.90;;;;;;7347513;19;108381;-85
2022/06/09 12:56:40;;;;;;;7.72;1.73;;;23.80;99.90;;;;;;7347851;19;112187;-85
2022/06/09 12:59:28;;;;;;;14.35;1.80;;;23.90;99.90;;;;;;7347928;19;107856;-85
2022/06/09 13:02:19;;;;;;;5.97;1.40;;;23.90;99.90;;;;;;7346056;19;108587;-85
2022/06/09 13:05:02;;;;;;;7.57;1.85;;;23.90;99.90;;;;;;7345828;19;108234;-85
2022/06/09 13:07:33;;;;;;;7.40;1.85;;;24.00;99.90;;;;;;7346661;19;107529;-86
2022/06/09 13:10:06;;;;;;;9.48;1.77;;;24.00;99.70;;;;;;7344677;19;108276;-85
2022/06/09 13:12:53;;;;;;;7.72;1.80;;;24.10;99.80;;;;;;7351248;19;109345;-85
2022/06/09 13:15:33;;;;;;;7.10;1.50;;;24.00;99.90;;;;;;7346596;19;108267;-85
2022/06/09 13:18:30;;;;;;;5.50;1.58;;;24.00;99.40;;;;;;7347008;19;108271;-85
2022/06/09 13:21:16;;;;;;;6.40;1.48;;;24.00;98.70;;;;;;7344241;19;107059;-85
2022/06/09 13:23:46;;;;;;;10.23;1.50;;;24.00;99.00;;;;;;7344156;19;108505;-85
2022/06/09 13:26:17;;;;;;;9.98;1.30;;;24.10;98.90;;;;;;7345816;19;108507;-85
2022/06/09 13:28:49;;;;;;;7.80;1.50;;;24.00;98.70;;;;;;7344914;19;108060;-86